createdAt,value
2022-09-05T00:03:02.614Z,13.73
2022-09-05T00:06:21.037Z,13.80
2022-09-05T00:10:03.625Z,13.84
2022-09-05T00:13:14.024Z,13.88
2022-09-05T00:16:47.447Z,13.96
2022-09-05T00:23:21.490Z,13.93
2022-09-05T00:24:35.329Z,13.93
2022-09-05T00:27:34.765Z,13.95
2022-09-05T00:31:07.376Z,13.93
2022-09-05T00:34:14.546Z,13.82
2022-09-05T00:37:24.523Z,13.93
2022-09-05T00:41:03.857Z,13.94
2022-09-05T00:44:10.651Z,13.77
2022-09-05T00:47:42.639Z,13.79
2022-09-05T00:50:53.724Z,13.81
2022-09-05T00:54:16.091Z,13.82
2022-09-05T00:57:49.433Z,13.87
2022-09-05T01:01:02.849Z,13.65
2022-09-05T01:04:32.635Z,13.64
2022-09-05T01:08:02.132Z,13.52
2022-09-05T01:11:21.369Z,13.57
2022-09-05T01:14:42.233Z,13.52
2022-09-05T01:18:26.451Z,13.65
2022-09-05T01:21:54.942Z,13.68
2022-09-05T01:25:25.163Z,13.70
2022-09-05T01:29:17.907Z,13.65
2022-09-05T01:32:27.530Z,13.58
2022-09-05T01:36:12.253Z,13.64
2022-09-05T01:40:11.394Z,13.71
2022-09-05T01:42:57.558Z,13.47
2022-09-05T01:46:37.628Z,13.54
2022-09-05T01:50:05.146Z,13.48
2022-09-05T01:53:36.551Z,13.56
2022-09-05T01:57:06.260Z,13.59
2022-09-05T02:00:38.648Z,13.62
2022-09-05T02:04:22.012Z,13.49
2022-09-05T02:07:45.374Z,13.49
2022-09-05T02:11:02.519Z,13.48
2022-09-05T02:14:13.197Z,13.51
2022-09-05T02:17:51.199Z,13.49
2022-09-05T02:20:59.418Z,13.62
2022-09-05T02:24:20.450Z,13.54
2022-09-05T02:28:04.292Z,13.47
2022-09-05T02:31:08.170Z,13.50
2022-09-05T02:34:07.556Z,13.43
2022-09-05T02:38:51.032Z,13.41
2022-09-05T02:45:10.556Z,13.29
2022-09-05T02:45:13.702Z,13.41
2022-09-05T02:47:44.712Z,13.24
2022-09-05T02:56:55.183Z,13.27
2022-09-05T02:57:34.203Z,13.34
2022-09-05T02:58:13.903Z,13.34
2022-09-05T03:01:29.576Z,13.34
2022-09-05T03:04:45.842Z,13.38
2022-09-05T03:08:17.207Z,13.45
2022-09-05T03:12:08.499Z,13.47
2022-09-05T03:15:45.072Z,13.49
2022-09-05T03:19:47.031Z,13.54
2022-09-05T03:22:59.599Z,13.67
2022-09-05T03:26:46.778Z,13.63
2022-09-05T03:30:01.560Z,13.79
2022-09-05T03:33:40.806Z,13.74
2022-09-05T03:37:14.876Z,13.88
2022-09-05T03:41:03.230Z,13.98
2022-09-05T03:44:29.678Z,14.08
2022-09-05T03:48:27.771Z,14.00
2022-09-05T03:57:08.731Z,14.16
2022-09-05T03:57:28.230Z,14.26
2022-09-05T03:59:02.094Z,14.43
2022-09-05T04:04:00.308Z,14.61
2022-09-05T04:08:24.665Z,14.82
2022-09-05T04:08:42.064Z,14.91
2022-09-05T04:11:58.270Z,14.87
2022-09-05T04:15:20.546Z,14.96
2022-09-05T04:18:45.791Z,15.23
2022-09-05T04:21:50.872Z,15.44
2022-09-05T04:25:16.375Z,15.70
2022-09-05T04:28:37.233Z,15.63
2022-09-05T04:32:17.809Z,15.78
2022-09-05T04:35:38.209Z,15.96
2022-09-05T04:38:52.832Z,16.19
2022-09-05T04:42:22.692Z,16.23
2022-09-05T04:45:28.619Z,16.36
2022-09-05T04:48:45.264Z,16.55
2022-09-05T04:52:24.089Z,16.78
2022-09-05T04:55:24.598Z,16.97
2022-09-05T05:01:58.960Z,17.07
2022-09-05T05:06:00.769Z,17.33
2022-09-05T05:06:09.582Z,17.48
2022-09-05T05:08:38.931Z,17.67
2022-09-05T05:17:54.345Z,17.88
2022-09-05T05:18:06.881Z,18.20
2022-09-05T05:18:56.525Z,18.44
2022-09-05T05:21:51.870Z,18.64
2022-09-05T05:25:06.898Z,18.80
2022-09-05T05:28:27.827Z,18.91
2022-09-05T05:31:45.102Z,19.07
2022-09-05T05:34:58.343Z,19.33
2022-09-05T05:38:30.582Z,19.31
2022-09-05T05:41:41.844Z,19.32
2022-09-05T05:44:49.179Z,19.48
2022-09-05T05:48:02.070Z,19.60
2022-09-05T05:51:47.540Z,19.71
2022-09-05T05:55:45.239Z,19.78
2022-09-05T05:58:43.251Z,19.86
2022-09-05T06:02:27.664Z,19.81
2022-09-05T06:06:10.142Z,19.97
2022-09-05T06:14:47.863Z,19.96
2022-09-05T06:14:57.994Z,20.16
2022-09-05T06:17:40.743Z,20.10
2022-09-05T06:22:10.742Z,20.15
2022-09-05T06:25:39.278Z,20.21
2022-09-05T06:29:09.434Z,20.32
2022-09-05T06:32:17.612Z,20.65
2022-09-05T06:35:45.619Z,20.87
2022-09-05T06:39:17.370Z,21.17
2022-09-05T06:42:43.232Z,21.26
2022-09-05T06:45:58.879Z,21.38
2022-09-05T06:49:33.477Z,21.65
2022-09-05T06:53:30.097Z,21.75
2022-09-05T06:56:33.052Z,21.75
2022-09-05T07:00:35.833Z,21.86
2022-09-05T07:04:33.353Z,21.91
2022-09-05T07:07:31.253Z,21.91
2022-09-05T07:10:52.979Z,21.99
2022-09-05T07:14:11.809Z,22.20
2022-09-05T07:17:53.545Z,22.14
2022-09-05T07:21:17.411Z,22.30
2022-09-05T07:24:53.212Z,22.47
2022-09-05T07:28:28.395Z,22.56
2022-09-05T07:31:09.624Z,22.53
2022-09-05T07:34:41.088Z,22.35
2022-09-05T07:37:51.329Z,22.44
2022-09-05T07:41:16.094Z,22.62
2022-09-05T07:44:40.534Z,22.77
2022-09-05T07:47:48.070Z,23.15
2022-09-05T07:52:21.105Z,23.40
2022-09-05T07:57:03.983Z,23.34
2022-09-05T07:57:50.850Z,23.55
2022-09-05T08:00:49.874Z,23.39
2022-09-05T08:03:55.651Z,23.47
2022-09-05T08:07:47.021Z,23.40
2022-09-05T08:10:15.795Z,23.57
2022-09-05T08:13:23.406Z,23.55
2022-09-05T08:16:32.120Z,23.75
2022-09-05T08:20:21.194Z,23.81
2022-09-05T08:24:13.274Z,23.78
2022-09-05T08:27:38.706Z,23.75
2022-09-05T08:30:47.294Z,23.89
2022-09-05T08:33:54.982Z,23.70
2022-09-05T08:37:05.265Z,23.80
2022-09-05T08:40:18.756Z,24.07
2022-09-05T08:46:38.032Z,24.20
2022-09-05T08:47:45.436Z,24.18
2022-09-05T08:51:11.800Z,24.00
2022-09-05T08:54:49.811Z,24.07
2022-09-05T08:58:15.648Z,24.29
2022-09-05T09:01:44.542Z,24.13
2022-09-05T09:05:22.071Z,24.09
2022-09-05T09:09:05.358Z,24.22
2022-09-05T09:12:22.790Z,24.39
2022-09-05T09:15:35.371Z,24.50
2022-09-05T09:19:08.057Z,24.53
2022-09-05T09:22:50.103Z,24.64
2022-09-05T09:26:06.797Z,24.64
2022-09-05T09:29:22.993Z,24.63
2022-09-05T09:32:45.861Z,24.51
2022-09-05T09:36:07.709Z,24.47
2022-09-05T09:39:37.790Z,24.46
2022-09-05T09:43:06.778Z,24.57
2022-09-05T09:46:34.021Z,24.39
2022-09-05T09:49:51.134Z,24.16
2022-09-05T09:53:22.223Z,23.92
2022-09-05T09:56:48.996Z,23.90
2022-09-05T10:00:27.865Z,23.97
2022-09-05T10:10:23.317Z,24.23
2022-09-05T10:10:47.950Z,24.35
2022-09-05T10:10:57.760Z,24.35
2022-09-05T10:14:49.287Z,24.17
2022-09-05T10:18:12.943Z,24.30
2022-09-05T10:21:44.951Z,24.55
2022-09-05T10:25:37.553Z,24.66
2022-09-05T10:28:51.443Z,24.63
2022-09-05T10:35:10.322Z,24.61
2022-09-05T10:35:48.676Z,24.44
2022-09-05T10:39:00.656Z,24.32
2022-09-05T10:42:23.704Z,24.23
2022-09-05T10:45:38.929Z,24.06
2022-09-05T10:48:56.352Z,23.60
2022-09-05T10:52:18.523Z,23.55
2022-09-05T10:56:05.136Z,23.54
2022-09-05T11:02:16.413Z,23.75
2022-09-05T11:02:42.396Z,23.80
2022-09-05T11:05:54.414Z,23.95
2022-09-05T11:09:23.146Z,23.94
2022-09-05T11:12:57.766Z,24.11
2022-09-05T11:16:46.036Z,24.09
2022-09-05T11:20:00.182Z,23.89
2022-09-05T11:23:05.799Z,23.82
2022-09-05T11:26:15.754Z,23.79
2022-09-05T11:29:24.826Z,23.64
2022-09-05T11:38:16.546Z,23.51
2022-09-05T11:40:08.285Z,23.53
2022-09-05T11:40:31.357Z,23.58
2022-09-05T11:43:30.483Z,23.75
2022-09-05T11:47:27.218Z,23.74
2022-09-05T11:50:32.327Z,23.83
2022-09-05T11:54:02.190Z,23.94
2022-09-05T11:57:33.302Z,24.00
2022-09-05T12:01:38.332Z,23.95
2022-09-05T12:05:48.857Z,24.05
2022-09-05T12:08:50.303Z,24.07
2022-09-05T12:12:40.966Z,24.03
2022-09-05T12:15:52.066Z,24.37
2022-09-05T12:18:44.777Z,24.48
2022-09-05T12:22:10.267Z,24.46
2022-09-05T12:29:27.370Z,24.53
2022-09-05T12:33:32.758Z,24.66
2022-09-05T12:36:10.278Z,24.52
2022-09-05T12:41:33.997Z,24.44
2022-09-05T12:42:08.623Z,24.48
2022-09-05T12:42:27.833Z,24.34
2022-09-05T12:45:39.491Z,24.21
2022-09-05T12:49:04.609Z,24.16
2022-09-05T12:52:16.690Z,24.13
2022-09-05T12:55:38.155Z,24.08
2022-09-05T13:02:57.553Z,24.18
2022-09-05T13:03:02.329Z,24.07
2022-09-05T13:05:05.950Z,24.09
2022-09-05T13:08:12.805Z,24.04
2022-09-05T13:14:48.062Z,24.08
2022-09-05T13:14:53.083Z,24.32
2022-09-05T13:17:59.950Z,24.34
2022-09-05T13:21:14.941Z,24.23
2022-09-05T13:24:29.331Z,24.26
2022-09-05T13:27:40.077Z,24.26
2022-09-05T13:34:50.715Z,24.30
2022-09-05T13:38:01.202Z,24.25
2022-09-05T13:38:17.620Z,24.36
2022-09-05T13:40:42.383Z,24.42
2022-09-05T13:43:42.522Z,24.45
2022-09-05T13:46:45.125Z,24.36
2022-09-05T13:49:47.426Z,24.32
2022-09-05T13:52:56.758Z,24.38
2022-09-05T13:56:07.315Z,24.40
2022-09-05T13:59:26.458Z,24.47
2022-09-05T14:06:36.615Z,24.53
2022-09-05T14:09:50.893Z,24.35
2022-09-05T14:13:05.694Z,24.40
2022-09-05T14:16:18.655Z,24.30
2022-09-05T14:19:49.924Z,24.26
2022-09-05T14:23:09.565Z,24.06
2022-09-05T14:26:16.486Z,24.01
2022-09-05T14:29:42.949Z,23.97
2022-09-05T14:37:40.947Z,23.83
2022-09-05T14:37:52.208Z,23.81
2022-09-05T14:40:30.757Z,23.67
2022-09-05T14:43:37.553Z,23.69
2022-09-05T14:47:35.074Z,23.70
2022-09-05T14:50:55.623Z,23.53
2022-09-05T15:02:38.684Z,23.28
2022-09-05T15:02:55.256Z,23.03
2022-09-05T15:07:15.936Z,22.91
2022-09-05T15:12:18.010Z,22.97
2022-09-05T15:13:46.339Z,23.02
2022-09-05T15:16:54.999Z,23.06
2022-09-05T15:20:11.751Z,23.29
2022-09-05T15:23:26.273Z,23.08
2022-09-05T15:26:35.929Z,23.10
2022-09-05T15:29:49.454Z,23.05
2022-09-05T15:32:55.282Z,22.83
2022-09-05T15:36:01.174Z,22.82
2022-09-05T15:39:11.751Z,22.46
2022-09-05T15:42:34.217Z,22.37
2022-09-05T15:45:52.839Z,22.38
2022-09-05T15:48:58.530Z,22.23
2022-09-05T15:52:06.184Z,22.10
2022-09-05T15:55:24.684Z,21.97
2022-09-05T15:58:35.954Z,21.89
2022-09-05T16:01:59.948Z,21.76
2022-09-05T16:10:28.190Z,21.75
2022-09-05T16:10:38.256Z,21.58
2022-09-05T16:15:53.506Z,21.51
2022-09-05T16:23:17.036Z,21.53
2022-09-05T16:23:32.504Z,21.44
2022-09-05T16:24:58.465Z,21.25
2022-09-05T16:28:13.949Z,21.09
2022-09-05T16:31:53.411Z,20.98
2022-09-05T16:35:17.110Z,20.84
2022-09-05T16:38:49.911Z,20.92
2022-09-05T16:42:00.108Z,20.83
2022-09-05T16:45:10.630Z,20.86
2022-09-05T16:48:44.481Z,20.97
2022-09-05T16:52:06.587Z,20.81
2022-09-05T16:55:34.365Z,20.81
2022-09-05T16:59:03.639Z,20.84
2022-09-05T17:02:38.117Z,20.85
2022-09-05T17:05:56.646Z,20.72
2022-09-05T17:09:12.980Z,20.80
2022-09-05T17:12:08.949Z,20.76
2022-09-05T17:15:19.489Z,20.76
2022-09-05T17:18:31.801Z,20.64
2022-09-05T17:27:31.829Z,20.63
2022-09-05T17:29:16.161Z,20.54
2022-09-05T17:29:34.490Z,20.52
2022-09-05T17:31:50.898Z,20.60
2022-09-05T17:34:32.364Z,20.55
2022-09-05T17:38:11.010Z,20.51
2022-09-05T17:41:26.744Z,20.42
2022-09-05T17:44:47.972Z,20.31
2022-09-05T17:48:07.066Z,20.28
2022-09-05T17:51:12.288Z,20.23
2022-09-05T17:54:24.845Z,20.24
2022-09-05T17:57:48.380Z,20.12
2022-09-05T18:01:04.216Z,19.98
2022-09-05T18:04:17.636Z,19.78
2022-09-05T18:07:25.002Z,19.59
2022-09-05T18:10:30.610Z,19.52
2022-09-05T18:13:36.580Z,19.37
2022-09-05T18:17:35.974Z,19.30
2022-09-05T18:20:07.387Z,19.44
2022-09-05T18:23:39.449Z,19.31
2022-09-05T18:26:43.354Z,19.32
2022-09-05T18:29:58.206Z,19.30
2022-09-05T18:33:56.385Z,19.33
2022-09-05T18:36:33.533Z,19.19
2022-09-05T18:39:53.030Z,19.23
2022-09-05T18:43:10.577Z,19.09
2022-09-05T18:46:13.766Z,19.05
2022-09-05T18:50:24.634Z,18.98
2022-09-05T18:53:09.060Z,19.01
2022-09-05T18:57:02.982Z,18.94
2022-09-05T18:59:51.532Z,19.05
2022-09-05T19:03:03.978Z,18.94
2022-09-05T19:06:36.716Z,18.90
2022-09-05T19:09:26.667Z,18.95
2022-09-05T19:12:33.116Z,18.95
2022-09-05T19:15:41.119Z,18.77
2022-09-05T19:18:48.637Z,18.71
2022-09-05T19:22:39.527Z,18.84
2022-09-05T19:25:15.151Z,18.77
2022-09-05T19:36:50.010Z,18.59
2022-09-05T19:36:54.779Z,18.86
2022-09-05T19:37:09.247Z,18.85
2022-09-05T19:38:16.012Z,18.81
2022-09-05T19:47:25.257Z,18.77
2022-09-05T19:47:39.124Z,18.68
2022-09-05T19:48:07.674Z,18.63
2022-09-05T19:51:16.830Z,18.48
2022-09-05T19:54:19.067Z,18.45
2022-09-05T19:57:31.574Z,18.27
2022-09-05T20:00:32.982Z,18.32
2022-09-05T20:03:39.910Z,18.44
2022-09-05T20:06:45.048Z,18.45
2022-09-05T20:09:58.256Z,18.35
2022-09-05T20:13:03.203Z,18.49
2022-09-05T20:16:08.616Z,18.63
2022-09-05T20:19:14.444Z,18.71
2022-09-05T20:22:47.597Z,18.70
2022-09-05T20:25:56.593Z,18.51
2022-09-05T20:29:02.976Z,18.67
2022-09-05T20:32:08.881Z,18.79
2022-09-05T20:38:00.637Z,18.81
2022-09-05T20:43:18.017Z,18.67
2022-09-05T20:43:29.087Z,18.78
2022-09-05T20:44:47.969Z,18.64
2022-09-05T20:54:05.522Z,18.71
2022-09-05T20:54:18.670Z,18.76
2022-09-05T20:54:32.109Z,18.95
2022-09-05T20:57:32.020Z,19.03
2022-09-05T21:00:38.617Z,18.91
2022-09-05T21:03:46.191Z,18.77
2022-09-05T21:06:53.975Z,18.74
2022-09-05T21:10:13.988Z,18.56
2022-09-05T21:13:20.409Z,18.64
2022-09-05T21:16:31.697Z,18.80
2022-09-05T21:19:53.536Z,18.77
2022-09-05T21:22:57.883Z,18.65
2022-09-05T21:26:08.824Z,18.60
2022-09-05T21:29:27.217Z,18.52
2022-09-05T21:32:38.263Z,18.50
2022-09-05T21:35:39.048Z,18.45
2022-09-05T21:38:55.445Z,18.47
2022-09-05T21:42:06.471Z,18.22
2022-09-05T21:47:48.739Z,18.08
2022-09-05T21:48:17.123Z,17.95
2022-09-05T21:51:28.976Z,17.90
2022-09-05T21:59:20.899Z,17.90
2022-09-05T21:59:33.206Z,17.93
2022-09-05T22:00:56.709Z,17.85
2022-09-05T22:04:04.405Z,17.76
2022-09-05T22:07:11.957Z,17.86
2022-09-05T22:10:19.048Z,17.86
2022-09-05T22:13:25.465Z,17.69
2022-09-05T22:16:31.641Z,17.84
2022-09-05T22:19:40.203Z,17.91
2022-09-05T22:22:46.860Z,17.73
2022-09-05T22:25:51.360Z,17.55
2022-09-05T22:28:56.329Z,17.50
2022-09-05T22:32:02.933Z,17.48
2022-09-05T22:35:27.490Z,17.15
2022-09-05T22:38:21.489Z,17.18
2022-09-05T22:41:30.301Z,17.01
2022-09-05T22:44:33.662Z,16.88
2022-09-05T22:47:39.465Z,16.91
2022-09-05T22:50:44.866Z,16.95
2022-09-05T22:53:50.072Z,16.94
2022-09-05T22:56:57.244Z,16.96
2022-09-05T23:00:03.532Z,16.83
2022-09-05T23:03:14.082Z,16.56
2022-09-05T23:06:22.525Z,16.63
2022-09-05T23:09:28.802Z,16.58
2022-09-05T23:12:35.494Z,16.49
2022-09-05T23:15:42.366Z,16.31
2022-09-05T23:18:49.367Z,16.07
2022-09-05T23:21:55.965Z,15.96
2022-09-05T23:25:02.557Z,15.85
2022-09-05T23:28:08.326Z,15.89
2022-09-05T23:31:17.103Z,16.07
2022-09-05T23:34:23.523Z,15.98
2022-09-05T23:37:29.657Z,15.99
2022-09-05T23:40:36.489Z,15.99
2022-09-05T23:43:42.380Z,16.07
2022-09-05T23:46:47.838Z,16.06
2022-09-05T23:49:54.780Z,16.09
2022-09-05T23:53:01.992Z,16.13
2022-09-05T23:56:08.553Z,16.04
2022-09-05T23:59:14.642Z,16.09
